createdAt,value
2023-02-19T00:00:29.669Z,95297.84
2023-02-19T00:02:56.771Z,95292.53
2023-02-19T00:05:23.976Z,95290.56
2023-02-19T00:07:50.672Z,95295.56
2023-02-19T00:10:17.813Z,95287.25
2023-02-19T00:12:45.073Z,95295.03
2023-02-19T00:15:11.763Z,95288.00
2023-02-19T00:17:38.846Z,95287.06
2023-02-19T00:20:05.817Z,95288.91
2023-02-19T00:22:32.578Z,95286.22
2023-02-19T00:24:59.292Z,95284.13
2023-02-19T00:27:25.987Z,95286.09
2023-02-19T00:29:53.154Z,95295.94
2023-02-19T00:32:19.851Z,95285.56
2023-02-19T00:34:46.542Z,95291.41
2023-02-19T00:37:13.229Z,95277.78
2023-02-19T00:39:39.952Z,95287.00
2023-02-19T00:42:07.235Z,95286.88
2023-02-19T00:44:34.236Z,95288.88
2023-02-19T00:47:00.930Z,95281.50
2023-02-19T00:49:29.494Z,95287.13
2023-02-19T00:51:56.214Z,95287.81
2023-02-19T00:54:23.047Z,95291.06
2023-02-19T00:56:49.902Z,95285.91
2023-02-19T00:59:16.651Z,95290.50
2023-02-19T01:01:43.668Z,95289.13
2023-02-19T01:04:10.430Z,95291.84
2023-02-19T01:06:37.549Z,95286.53
2023-02-19T01:09:05.258Z,95284.06
2023-02-19T01:11:32.341Z,95282.31
2023-02-19T01:13:59.748Z,95282.91
2023-02-19T01:16:26.826Z,95282.00
2023-02-19T01:18:53.880Z,95287.19
2023-02-19T01:21:22.397Z,95280.53
2023-02-19T01:23:52.004Z,95285.50
2023-02-19T01:26:40.444Z,95278.44
2023-02-19T01:29:07.164Z,95281.16
2023-02-19T01:31:34.387Z,95278.28
2023-02-19T01:34:03.027Z,95278.78
2023-02-19T01:36:30.677Z,95270.22
2023-02-19T01:38:59.762Z,95279.34
2023-02-19T01:41:26.503Z,95279.22
2023-02-19T01:44:00.574Z,95270.50
2023-02-19T01:46:32.621Z,95264.44
2023-02-19T01:49:02.609Z,95273.38
2023-02-19T01:51:29.366Z,95270.31
2023-02-19T01:53:57.299Z,95262.50
2023-02-19T01:56:24.494Z,95261.53
2023-02-19T01:58:53.468Z,95253.16
2023-02-19T02:01:20.236Z,95259.22
2023-02-19T02:03:47.302Z,95253.03
2023-02-19T02:06:22.021Z,95254.25
2023-02-19T02:08:51.756Z,95246.81
2023-02-19T02:11:18.822Z,95250.84
2023-02-19T02:13:48.573Z,95244.41
2023-02-19T02:16:42.126Z,95235.41
2023-02-19T02:19:21.079Z,95236.25
2023-02-19T02:22:01.697Z,95236.09
2023-02-19T02:25:19.541Z,95237.50
2023-02-19T02:28:14.080Z,95235.66
2023-02-19T02:30:52.515Z,95231.69
2023-02-19T02:33:42.266Z,95227.50
2023-02-19T02:36:13.163Z,95231.28
2023-02-19T02:38:41.885Z,95231.13
2023-02-19T02:41:09.117Z,95226.16
2023-02-19T02:43:37.538Z,95226.22
2023-02-19T02:46:04.279Z,95227.47
2023-02-19T02:48:49.067Z,95228.81
2023-02-19T02:51:33.580Z,95225.47
2023-02-19T02:54:15.070Z,95227.84
2023-02-19T02:56:41.861Z,95225.56
2023-02-19T02:59:09.861Z,95217.63
2023-02-19T03:02:04.444Z,95224.19
2023-02-19T03:04:53.914Z,95222.41
2023-02-19T03:07:20.638Z,95215.47
2023-02-19T03:09:49.688Z,95221.63
2023-02-19T03:12:16.445Z,95216.69
2023-02-19T03:14:48.442Z,95211.66
2023-02-19T03:17:27.612Z,95204.31
2023-02-19T03:19:56.222Z,95215.66
2023-02-19T03:22:30.280Z,95224.38
2023-02-19T03:25:21.982Z,95219.78
2023-02-19T03:27:49.190Z,95215.59
2023-02-19T03:30:21.113Z,95211.41
2023-02-19T03:33:05.984Z,95206.34
2023-02-19T03:35:33.326Z,95194.13
2023-02-19T03:38:30.303Z,95193.13
2023-02-19T03:41:02.950Z,95196.34
2023-02-19T03:43:46.762Z,95196.09
2023-02-19T03:46:26.318Z,95204.44
2023-02-19T03:48:58.979Z,95209.66
2023-02-19T03:51:39.184Z,95201.50
2023-02-19T03:54:13.657Z,95193.81
2023-02-19T03:56:52.298Z,95204.19
2023-02-19T03:59:47.389Z,95210.34
2023-02-19T04:02:16.499Z,95198.59
2023-02-19T04:04:50.156Z,95208.50
2023-02-19T04:07:16.891Z,95214.81
2023-02-19T04:09:45.534Z,95223.19
2023-02-19T04:12:12.229Z,95221.28
2023-02-19T04:15:03.453Z,95225.91
2023-02-19T04:17:36.058Z,95224.19
2023-02-19T04:20:03.928Z,95228.25
2023-02-19T04:22:30.673Z,95237.53
2023-02-19T04:25:00.383Z,95231.97
2023-02-19T04:27:27.071Z,95239.25
2023-02-19T04:29:54.135Z,95245.69
2023-02-19T04:32:20.860Z,95250.09
2023-02-19T04:34:47.554Z,95243.47
2023-02-19T04:37:14.293Z,95251.59
2023-02-19T04:39:40.989Z,95259.44
2023-02-19T04:42:07.836Z,95263.25
2023-02-19T04:44:35.212Z,95266.22
2023-02-19T04:47:02.094Z,95268.06
2023-02-19T04:49:29.443Z,95264.72
2023-02-19T04:51:56.141Z,95266.38
2023-02-19T04:54:23.953Z,95267.53
2023-02-19T04:56:50.666Z,95260.88
2023-02-19T04:59:17.368Z,95281.56
2023-02-19T05:01:45.169Z,95273.47
2023-02-19T05:04:11.904Z,95269.38
2023-02-19T05:06:41.660Z,95268.78
2023-02-19T05:09:08.669Z,95250.72
2023-02-19T05:11:35.517Z,95233.56
2023-02-19T05:14:02.237Z,95241.41
2023-02-19T05:16:28.924Z,95250.56
2023-02-19T05:18:58.755Z,95239.16
2023-02-19T05:21:28.439Z,95231.75
2023-02-19T05:23:55.529Z,95230.38
2023-02-19T05:26:22.798Z,95230.44
2023-02-19T05:28:53.099Z,95214.16
2023-02-19T05:31:20.113Z,95204.91
2023-02-19T05:33:46.912Z,95207.78
2023-02-19T05:36:13.782Z,95211.63
2023-02-19T05:38:40.947Z,95211.13
2023-02-19T05:41:18.292Z,95203.91
2023-02-19T05:43:45.990Z,95194.91
2023-02-19T05:46:13.945Z,95194.72
2023-02-19T05:48:41.871Z,95193.19
2023-02-19T05:51:13.320Z,95204.81
2023-02-19T05:53:40.153Z,95214.94
2023-02-19T05:56:35.894Z,95224.56
2023-02-19T05:59:17.490Z,95204.72
2023-02-19T06:01:44.517Z,95206.81
2023-02-19T06:04:11.419Z,95209.53
2023-02-19T06:06:38.217Z,95210.28
2023-02-19T06:09:05.338Z,95209.31
2023-02-19T06:11:32.142Z,95207.53
2023-02-19T06:13:59.336Z,95210.59
2023-02-19T06:16:27.613Z,95221.28
2023-02-19T06:18:57.097Z,95239.94
2023-02-19T06:21:28.910Z,95243.69
2023-02-19T06:23:55.635Z,95241.81
2023-02-19T06:26:23.787Z,95236.50
2023-02-19T06:28:51.216Z,95241.09
2023-02-19T06:31:18.838Z,95250.09
2023-02-19T06:33:45.586Z,95267.53
2023-02-19T06:36:16.181Z,95276.84
2023-02-19T06:38:43.045Z,95270.50
2023-02-19T06:41:10.526Z,95270.94
2023-02-19T06:43:38.044Z,95280.94
2023-02-19T06:46:06.255Z,95277.31
2023-02-19T06:48:34.246Z,95271.59
2023-02-19T06:51:01.981Z,95267.66
2023-02-19T06:53:29.357Z,95265.56
2023-02-19T06:56:00.251Z,95258.16
2023-02-19T06:58:27.089Z,95261.72
2023-02-19T07:00:53.814Z,95278.09
2023-02-19T07:03:23.569Z,95271.03
2023-02-19T07:05:53.011Z,95266.94
2023-02-19T07:08:22.579Z,95272.88
2023-02-19T07:10:56.102Z,95279.84
2023-02-19T07:13:26.201Z,95299.75
2023-02-19T07:15:57.833Z,95293.06
2023-02-19T07:18:30.387Z,95307.34
2023-02-19T07:21:12.368Z,95312.41
2023-02-19T07:23:39.672Z,95307.63
2023-02-19T07:26:12.622Z,95307.66
2023-02-19T07:28:43.748Z,95305.47
2023-02-19T07:31:11.661Z,95313.53
2023-02-19T07:33:39.068Z,95313.31
2023-02-19T07:36:28.809Z,95314.53
2023-02-19T07:38:59.289Z,95321.50
2023-02-19T07:41:26.328Z,95332.72
2023-02-19T07:43:53.485Z,95325.59
2023-02-19T07:46:20.616Z,95330.41
2023-02-19T07:48:48.257Z,95344.13
2023-02-19T07:51:16.223Z,95343.66
2023-02-19T07:53:43.439Z,95349.97
2023-02-19T07:56:12.385Z,95350.97
2023-02-19T07:58:39.243Z,95348.75
2023-02-19T08:01:10.295Z,95351.19
2023-02-19T08:03:38.130Z,95350.41
2023-02-19T08:06:05.247Z,95347.31
2023-02-19T08:08:32.363Z,95362.66
2023-02-19T08:11:03.529Z,95353.81
2023-02-19T08:13:30.628Z,95356.41
2023-02-19T08:16:36.711Z,95361.78
2023-02-19T08:19:05.502Z,95361.72
2023-02-19T08:21:34.302Z,95350.66
2023-02-19T08:24:01.586Z,95357.00
2023-02-19T08:26:28.427Z,95355.41
2023-02-19T08:28:55.247Z,95358.88
2023-02-19T08:31:24.992Z,95356.38
2023-02-19T08:33:56.896Z,95359.63
2023-02-19T08:36:24.133Z,95353.59
2023-02-19T08:38:51.916Z,95352.06
2023-02-19T08:41:19.006Z,95359.28
2023-02-19T08:43:46.930Z,95359.41
2023-02-19T08:46:13.673Z,95372.94
2023-02-19T08:48:40.506Z,95372.66
2023-02-19T08:51:10.440Z,95370.19
2023-02-19T08:53:38.076Z,95373.19
2023-02-19T08:56:12.834Z,95366.84
2023-02-19T08:58:40.963Z,95368.28
2023-02-19T09:01:12.090Z,95365.69
2023-02-19T09:03:39.514Z,95356.56
2023-02-19T09:06:16.357Z,95366.53
2023-02-19T09:08:43.093Z,95376.66
2023-02-19T09:11:10.388Z,95376.31
2023-02-19T09:13:37.457Z,95382.66
2023-02-19T09:16:05.612Z,95382.50
2023-02-19T09:18:35.445Z,95377.00
2023-02-19T09:21:06.317Z,95374.41
2023-02-19T09:23:35.449Z,95380.03
2023-02-19T09:26:02.417Z,95379.91
2023-02-19T09:28:31.002Z,95384.41
2023-02-19T09:30:57.839Z,95375.13
2023-02-19T09:33:30.572Z,95390.41
2023-02-19T09:36:00.116Z,95381.88
2023-02-19T09:38:27.239Z,95380.56
2023-02-19T09:40:57.532Z,95377.94
2023-02-19T09:43:24.638Z,95379.19
2023-02-19T09:46:04.798Z,95382.50
2023-02-19T09:48:32.627Z,95378.06
2023-02-19T09:50:59.770Z,95368.94
2023-02-19T09:53:30.387Z,95382.81
2023-02-19T09:55:57.098Z,95377.72
2023-02-19T09:58:35.373Z,95369.88
2023-02-19T10:01:06.282Z,95379.72
2023-02-19T10:03:38.723Z,95380.31
2023-02-19T10:06:09.429Z,95375.06
2023-02-19T10:08:39.429Z,95372.66
2023-02-19T10:11:06.154Z,95371.75
2023-02-19T10:13:37.705Z,95373.28
2023-02-19T10:16:05.960Z,95376.91
2023-02-19T10:18:39.803Z,95374.38
2023-02-19T10:21:07.581Z,95374.06
2023-02-19T10:23:34.713Z,95371.50
2023-02-19T10:26:02.152Z,95366.47
2023-02-19T10:28:30.310Z,95361.09
2023-02-19T10:30:59.449Z,95372.00
2023-02-19T10:33:26.802Z,95363.56
2023-02-19T10:36:05.505Z,95370.16
2023-02-19T10:38:39.317Z,95378.00
2023-02-19T10:41:19.579Z,95378.91
2023-02-19T10:44:00.374Z,95371.09
2023-02-19T10:46:31.937Z,95371.44
2023-02-19T10:49:02.100Z,95371.19
2023-02-19T10:51:32.248Z,95362.97
2023-02-19T10:54:26.814Z,95370.28
2023-02-19T10:56:53.611Z,95369.13
2023-02-19T10:59:32.194Z,95367.69
2023-02-19T11:02:03.494Z,95372.16
2023-02-19T11:04:31.400Z,95368.47
2023-02-19T11:07:10.489Z,95362.66
2023-02-19T11:09:44.500Z,95367.31
2023-02-19T11:12:13.259Z,95367.91
2023-02-19T11:14:44.735Z,95364.53
2023-02-19T11:17:49.848Z,95364.06
2023-02-19T11:20:25.174Z,95354.22
2023-02-19T11:22:52.352Z,95357.03
2023-02-19T11:25:27.637Z,95350.47
2023-02-19T11:28:17.045Z,95345.16
2023-02-19T11:30:44.412Z,95338.25
2023-02-19T11:33:43.994Z,95332.53
2023-02-19T11:36:30.409Z,95332.88
2023-02-19T11:38:58.786Z,95328.81
2023-02-19T11:42:03.753Z,95327.41
2023-02-19T11:44:49.353Z,95317.38
2023-02-19T11:47:41.682Z,95318.56
2023-02-19T11:50:49.921Z,95319.84
2023-02-19T11:53:29.285Z,95312.88
2023-02-19T11:56:23.817Z,95308.03
2023-02-19T11:59:23.810Z,95300.97
2023-02-19T12:02:24.594Z,95304.22
2023-02-19T12:05:21.319Z,95293.28
2023-02-19T12:08:09.317Z,95291.13
2023-02-19T12:11:09.403Z,95293.50
2023-02-19T12:13:57.920Z,95283.28
2023-02-19T12:16:30.615Z,95279.47
2023-02-19T12:19:00.340Z,95273.38
2023-02-19T12:21:32.912Z,95275.72
2023-02-19T12:24:32.565Z,95273.25
2023-02-19T12:27:26.625Z,95266.75
2023-02-19T12:30:09.223Z,95269.38
2023-02-19T12:33:00.289Z,95266.38
2023-02-19T12:35:52.582Z,95275.63
2023-02-19T12:38:27.459Z,95265.81
2023-02-19T12:41:07.190Z,95270.44
2023-02-19T12:43:37.571Z,95269.38
2023-02-19T12:46:12.806Z,95268.19
2023-02-19T12:49:19.169Z,95264.66
2023-02-19T12:51:52.828Z,95264.84
2023-02-19T12:54:48.325Z,95265.19
2023-02-19T12:57:24.273Z,95267.88
2023-02-19T13:00:36.938Z,95258.59
2023-02-19T13:03:25.735Z,95267.13
2023-02-19T13:06:19.862Z,95263.22
2023-02-19T13:09:06.341Z,95251.31
2023-02-19T13:11:45.356Z,95238.75
2023-02-19T13:14:42.109Z,95255.09
2023-02-19T13:17:33.978Z,95244.88
2023-02-19T13:20:14.385Z,95251.56
2023-02-19T13:23:02.139Z,95237.78
2023-02-19T13:25:59.624Z,95238.19
2023-02-19T13:29:10.845Z,95239.78
2023-02-19T13:32:20.767Z,95237.53
2023-02-19T13:35:01.763Z,95228.84
2023-02-19T13:37:29.932Z,95224.59
2023-02-19T13:39:56.637Z,95228.28
2023-02-19T13:42:34.536Z,95225.66
2023-02-19T13:45:05.236Z,95233.72
2023-02-19T13:48:09.510Z,95232.72
2023-02-19T13:50:36.730Z,95227.56
2023-02-19T13:53:42.434Z,95225.47
2023-02-19T13:56:31.890Z,95227.69
2023-02-19T13:59:15.529Z,95218.41
2023-02-19T14:02:12.781Z,95215.31
2023-02-19T14:04:47.604Z,95226.84
2023-02-19T14:07:14.716Z,95226.56
2023-02-19T14:09:41.305Z,95230.41
2023-02-19T14:12:07.913Z,95229.66
2023-02-19T14:14:53.536Z,95222.53
2023-02-19T14:17:33.628Z,95218.03
2023-02-19T14:20:09.890Z,95207.16
2023-02-19T14:22:49.064Z,95218.25
2023-02-19T14:25:36.828Z,95204.09
2023-02-19T14:28:18.794Z,95201.63
2023-02-19T14:31:02.893Z,95190.91
2023-02-19T14:33:43.165Z,95176.44
2023-02-19T14:36:33.369Z,95176.00
2023-02-19T14:39:04.697Z,95188.97
2023-02-19T14:41:33.159Z,95188.97
2023-02-19T14:44:00.297Z,95187.31
2023-02-19T14:46:37.865Z,95189.00
2023-02-19T14:49:24.367Z,95175.19
2023-02-19T14:52:01.337Z,95172.53
2023-02-19T14:54:56.995Z,95188.31
2023-02-19T14:57:26.666Z,95205.13
2023-02-19T14:59:56.594Z,95209.41
2023-02-19T15:02:27.449Z,95213.72
2023-02-19T15:05:02.102Z,95219.13
2023-02-19T15:07:31.601Z,95216.66
2023-02-19T15:10:05.667Z,95222.06
2023-02-19T15:12:59.338Z,95216.03
2023-02-19T15:15:28.023Z,95208.69
2023-02-19T15:17:55.402Z,95211.00
2023-02-19T15:20:45.337Z,95206.91
2023-02-19T15:23:17.049Z,95205.78
2023-02-19T15:25:45.450Z,95203.53
2023-02-19T15:28:39.424Z,95195.44
2023-02-19T15:31:06.644Z,95196.31
2023-02-19T15:33:33.553Z,95216.56
2023-02-19T15:36:03.106Z,95218.13
2023-02-19T15:38:30.854Z,95217.53
2023-02-19T15:40:57.901Z,95232.69
2023-02-19T15:43:32.653Z,95230.22
2023-02-19T15:46:16.365Z,95223.81
2023-02-19T15:48:56.543Z,95219.50
2023-02-19T15:52:00.474Z,95226.13
2023-02-19T15:54:33.311Z,95224.44
2023-02-19T15:57:03.378Z,95224.91
2023-02-19T15:59:38.546Z,95233.31
2023-02-19T16:02:06.221Z,95235.53
2023-02-19T16:04:33.958Z,95243.66
2023-02-19T16:07:01.872Z,95233.81
2023-02-19T16:09:38.557Z,95247.06
2023-02-19T16:12:25.584Z,95249.25
2023-02-19T16:14:52.321Z,95261.59
2023-02-19T16:17:21.857Z,95268.16
2023-02-19T16:19:54.688Z,95271.72
2023-02-19T16:22:23.720Z,95266.44
2023-02-19T16:24:55.549Z,95258.78
2023-02-19T16:27:36.166Z,95265.16
2023-02-19T16:30:25.777Z,95259.47
2023-02-19T16:33:29.590Z,95268.63
2023-02-19T16:36:16.156Z,95281.44
2023-02-19T16:39:06.836Z,95290.50
2023-02-19T16:41:34.496Z,95283.38
2023-02-19T16:44:01.218Z,95280.38
2023-02-19T16:46:27.897Z,95283.69
2023-02-19T16:48:57.254Z,95275.91
2023-02-19T16:51:25.328Z,95285.91
2023-02-19T16:53:52.466Z,95303.72
2023-02-19T16:56:19.954Z,95301.28
2023-02-19T16:58:46.791Z,95306.78
2023-02-19T17:01:13.915Z,95306.91
2023-02-19T17:03:41.155Z,95318.19
2023-02-19T17:06:07.860Z,95316.31
2023-02-19T17:08:52.130Z,95319.22
2023-02-19T17:11:18.923Z,95328.50
2023-02-19T17:13:46.421Z,95332.38
2023-02-19T17:16:20.885Z,95339.78
2023-02-19T17:18:47.651Z,95334.38
2023-02-19T17:21:28.905Z,95338.31
2023-02-19T17:23:56.145Z,95342.22
2023-02-19T17:26:27.725Z,95345.94
2023-02-19T17:29:17.786Z,95336.34
2023-02-19T17:31:44.918Z,95339.00
2023-02-19T17:34:12.607Z,95337.44
2023-02-19T17:36:43.496Z,95348.19
2023-02-19T17:39:12.942Z,95348.47
2023-02-19T17:41:40.426Z,95356.75
2023-02-19T17:44:09.042Z,95360.66
2023-02-19T17:46:35.785Z,95351.56
2023-02-19T17:49:02.533Z,95364.06
2023-02-19T17:51:29.592Z,95362.41
2023-02-19T17:53:57.016Z,95358.03
2023-02-19T17:56:25.053Z,95363.72
2023-02-19T17:58:52.068Z,95367.75
2023-02-19T18:01:18.848Z,95364.00
2023-02-19T18:03:46.365Z,95365.78
2023-02-19T18:06:15.962Z,95366.22
2023-02-19T18:08:50.377Z,95370.56
2023-02-19T18:11:20.087Z,95379.94
2023-02-19T18:13:50.727Z,95381.25
2023-02-19T18:16:17.923Z,95372.88
2023-02-19T18:18:47.772Z,95370.53
2023-02-19T18:21:14.952Z,95381.78
2023-02-19T18:23:42.552Z,95376.53
2023-02-19T18:26:10.114Z,95379.19
2023-02-19T18:28:41.998Z,95385.72
2023-02-19T18:31:08.818Z,95383.34
2023-02-19T18:33:35.958Z,95380.47
2023-02-19T18:36:03.168Z,95384.06
2023-02-19T18:38:32.694Z,95382.69
2023-02-19T18:41:02.258Z,95373.25
2023-02-19T18:43:29.423Z,95375.31
2023-02-19T18:45:59.890Z,95374.66
2023-02-19T18:48:27.089Z,95371.50
2023-02-19T18:50:55.213Z,95372.72
2023-02-19T18:53:22.616Z,95372.31
2023-02-19T18:55:49.894Z,95378.28
2023-02-19T18:58:17.410Z,95366.91
2023-02-19T19:00:44.269Z,95370.13
2023-02-19T19:03:11.018Z,95368.91
2023-02-19T19:05:41.239Z,95369.06
2023-02-19T19:08:07.985Z,95364.53
2023-02-19T19:10:35.117Z,95365.69
2023-02-19T19:13:03.626Z,95370.56
2023-02-19T19:15:30.772Z,95372.19
2023-02-19T19:18:02.736Z,95381.72
2023-02-19T19:20:30.905Z,95372.91
2023-02-19T19:22:58.001Z,95376.56
2023-02-19T19:25:28.242Z,95373.88
2023-02-19T19:27:55.760Z,95380.06
2023-02-19T19:30:22.545Z,95381.81
2023-02-19T19:32:49.702Z,95377.00
2023-02-19T19:35:19.906Z,95384.94
2023-02-19T19:37:46.595Z,95390.09
2023-02-19T19:40:15.689Z,95389.56
2023-02-19T19:42:44.503Z,95381.81
2023-02-19T19:45:12.863Z,95393.41
2023-02-19T19:47:39.760Z,95388.94
2023-02-19T19:50:07.794Z,95392.00
2023-02-19T19:52:37.361Z,95381.09
2023-02-19T19:55:04.446Z,95373.59
2023-02-19T19:57:32.545Z,95377.00
2023-02-19T20:00:02.168Z,95376.13
2023-02-19T20:02:29.277Z,95387.19
2023-02-19T20:04:56.156Z,95378.47
2023-02-19T20:07:22.930Z,95364.72
2023-02-19T20:09:49.707Z,95360.94
2023-02-19T20:12:17.088Z,95369.91
2023-02-19T20:14:48.307Z,95362.59
2023-02-19T20:17:15.107Z,95368.97
2023-02-19T20:19:42.206Z,95377.66
2023-02-19T20:22:11.654Z,95386.09
2023-02-19T20:24:39.684Z,95394.19
2023-02-19T20:27:06.367Z,95395.31
2023-02-19T20:29:33.873Z,95402.19
2023-02-19T20:32:00.746Z,95398.66
2023-02-19T20:34:28.051Z,95407.00
2023-02-19T20:36:54.880Z,95414.69
2023-02-19T20:39:23.101Z,95415.88
2023-02-19T20:41:50.931Z,95412.31
2023-02-19T20:44:18.195Z,95415.53
2023-02-19T20:46:45.930Z,95415.00
2023-02-19T20:49:13.816Z,95413.75
2023-02-19T20:51:44.865Z,95438.16
2023-02-19T20:54:11.611Z,95446.75
2023-02-19T20:56:43.295Z,95444.06
2023-02-19T20:59:10.388Z,95435.34
2023-02-19T21:01:38.779Z,95432.31
2023-02-19T21:04:05.618Z,95436.47
2023-02-19T21:06:33.615Z,95448.06
2023-02-19T21:09:00.482Z,95456.06
2023-02-19T21:11:27.302Z,95450.63
2023-02-19T21:13:54.736Z,95444.22
2023-02-19T21:16:21.912Z,95437.63
2023-02-19T21:18:49.713Z,95428.41
2023-02-19T21:21:20.313Z,95424.28
2023-02-19T21:23:48.381Z,95429.56
2023-02-19T21:26:15.086Z,95422.06
2023-02-19T21:28:42.468Z,95432.00
2023-02-19T21:31:09.753Z,95438.50
2023-02-19T21:33:36.479Z,95439.38
2023-02-19T21:36:04.212Z,95442.22
2023-02-19T21:38:33.716Z,95447.50
2023-02-19T21:41:07.173Z,95449.97
2023-02-19T21:43:33.851Z,95446.63
2023-02-19T21:46:03.780Z,95448.19
2023-02-19T21:48:30.821Z,95456.25
2023-02-19T21:50:57.716Z,95457.03
2023-02-19T21:53:24.392Z,95458.53
2023-02-19T21:55:58.731Z,95460.63
2023-02-19T21:58:26.568Z,95462.25
2023-02-19T22:00:53.419Z,95461.47
2023-02-19T22:03:20.466Z,95466.31
2023-02-19T22:05:47.417Z,95461.53
2023-02-19T22:08:14.348Z,95453.56
2023-02-19T22:10:41.081Z,95453.13
2023-02-19T22:13:08.231Z,95454.69
2023-02-19T22:15:36.014Z,95453.41
2023-02-19T22:18:02.697Z,95456.25
2023-02-19T22:20:29.599Z,95453.81
2023-02-19T22:22:57.583Z,95457.28
2023-02-19T22:25:24.298Z,95453.69
2023-02-19T22:27:51.690Z,95454.91
2023-02-19T22:30:18.610Z,95452.91
2023-02-19T22:32:46.742Z,95455.19
2023-02-19T22:35:15.762Z,95458.41
2023-02-19T22:37:42.885Z,95450.84
2023-02-19T22:40:22.578Z,95454.00
2023-02-19T22:42:49.251Z,95451.94
2023-02-19T22:45:16.100Z,95456.28
2023-02-19T22:47:42.846Z,95451.94
2023-02-19T22:50:19.677Z,95455.50
2023-02-19T22:52:46.625Z,95448.41
2023-02-19T22:55:13.386Z,95460.06
2023-02-19T22:57:40.110Z,95456.47
2023-02-19T23:00:15.283Z,95459.41
2023-02-19T23:02:41.995Z,95461.63
2023-02-19T23:05:09.037Z,95452.63
2023-02-19T23:07:36.928Z,95457.41
2023-02-19T23:10:05.823Z,95458.47
2023-02-19T23:12:36.180Z,95450.13
2023-02-19T23:15:05.842Z,95453.41
2023-02-19T23:17:33.834Z,95447.88
2023-02-19T23:20:00.908Z,95445.53
2023-02-19T23:22:28.576Z,95446.75
2023-02-19T23:24:55.949Z,95452.47
2023-02-19T23:27:22.727Z,95454.81
2023-02-19T23:29:49.475Z,95453.72
2023-02-19T23:32:16.159Z,95445.78
2023-02-19T23:34:42.858Z,95456.94
2023-02-19T23:37:10.013Z,95465.28
2023-02-19T23:39:37.226Z,95470.53
2023-02-19T23:42:05.185Z,95467.38
2023-02-19T23:44:33.613Z,95457.47
2023-02-19T23:47:00.341Z,95462.63
2023-02-19T23:49:28.509Z,95460.31
2023-02-19T23:51:55.549Z,95464.13
2023-02-19T23:54:24.991Z,95462.13
2023-02-19T23:56:52.938Z,95466.47
2023-02-19T23:59:19.664Z,95461.63
